Time;durP1;ratioP1;P1;durP2;ratioP2;P2;SDS_P1;SDS_P2;PMS_P1;PMS_P2;Temp;Humidity;BMP_temperature;BMP_pressure;BME280_temperature;BME280_humidity;BME280_pressure;Samples;Min_cycle;Max_cycle;Signal;HPM_P1;HPM_P2
2021/05/26 00:01:38;;;;;;;;;;;15.80;88.20;;;;;;4176878;28;20645;-46
2021/05/26 00:04:00;;;;;;;0.00;0.00;;;15.80;88.20;;;;;;4176995;28;19929;-46
2021/05/26 00:06:22;;;;;;;0.00;0.00;;;15.70;88.20;;;;;;4176954;28;20127;-46
2021/05/26 00:08:44;;;;;;;0.00;0.00;;;15.70;88.20;;;;;;4176936;28;20075;-46
2021/05/26 00:11:08;;;;;;;0.00;0.00;;;15.70;88.20;;;;;;4170949;28;20127;-47
2021/05/26 00:13:31;;;;;;;0.25;0.25;;;15.70;88.30;;;;;;4160571;28;20053;-44
2021/05/26 00:15:54;;;;;;;0.00;0.00;;;15.70;88.20;;;;;;4160516;28;20112;-46
2021/05/26 00:18:16;;;;;;;0.00;0.00;;;15.70;88.30;;;;;;4158455;28;20052;-46
2021/05/26 00:20:37;;;;;;;0.00;0.00;;;15.70;88.30;;;;;;4160440;28;20045;-45
2021/05/26 00:23:00;;;;;;;0.00;0.00;;;15.70;88.30;;;;;;4160079;28;20041;-46
2021/05/26 00:25:22;;;;;;;0.00;0.00;;;15.70;88.30;;;;;;4159985;28;20551;-46
2021/05/26 00:27:45;;;;;;;0.00;0.00;;;15.70;88.30;;;;;;4145745;28;20173;-47
2021/05/26 00:30:07;;;;;;;0.00;0.00;;;15.70;88.40;;;;;;4159977;28;20060;-47
2021/05/26 00:32:29;;;;;;;0.20;0.20;;;15.70;88.40;;;;;;4176187;28;20094;-46
2021/05/26 00:34:51;;;;;;;0.28;0.28;;;15.60;88.30;;;;;;4175796;28;20139;-46
2021/05/26 00:37:12;;;;;;;0.00;0.00;;;15.60;88.50;;;;;;4175765;28;20108;-46
2021/05/26 00:39:35;;;;;;;0.00;0.00;;;15.60;88.60;;;;;;4176061;28;20415;-46
2021/05/26 00:41:57;;;;;;;0.00;0.00;;;15.60;88.40;;;;;;4176168;28;20053;-44
2021/05/26 00:44:18;;;;;;;0.45;0.45;;;15.60;89.30;;;;;;4174897;28;20118;-46
2021/05/26 00:46:41;;;;;;;0.00;0.00;;;15.60;88.40;;;;;;4176411;28;20049;-48
2021/05/26 00:49:02;;;;;;;0.00;0.00;;;15.60;88.50;;;;;;4166317;28;20071;-46
2021/05/26 00:51:24;;;;;;;0.00;0.00;;;15.60;88.60;;;;;;4165619;28;20052;-48
2021/05/26 00:53:46;;;;;;;0.00;0.00;;;15.60;88.60;;;;;;4176094;28;20057;-47
2021/05/26 00:56:09;;;;;;;0.00;0.00;;;15.60;88.60;;;;;;4174623;28;20406;-47
2021/05/26 00:58:31;;;;;;;0.25;0.25;;;15.60;88.60;;;;;;4174792;28;20045;-45
2021/05/26 01:00:53;;;;;;;0.00;0.00;;;15.60;88.60;;;;;;4175343;28;20060;-45
2021/05/26 01:03:16;;;;;;;0.20;0.20;;;15.60;88.60;;;;;;4175904;28;20529;-46
2021/05/26 01:05:39;;;;;;;0.00;0.00;;;15.60;88.70;;;;;;4176114;28;20525;-48
2021/05/26 01:08:01;;;;;;;0.00;0.00;;;15.60;88.70;;;;;;4176072;28;20049;-46
2021/05/26 01:10:26;;;;;;;0.00;0.00;;;15.60;88.80;;;;;;4161201;28;20069;-48
2021/05/26 01:13:15;;;;;;;0.00;0.00;;;15.60;88.70;;;;;;4165776;28;20063;-49
2021/05/26 01:15:38;;;;;;;0.00;0.00;;;15.60;88.70;;;;;;4159415;28;20053;-45
2021/05/26 01:18:22;;;;;;;0.00;0.00;;;15.50;88.70;;;;;;4159522;28;20087;-45
2021/05/26 01:20:47;;;;;;;0.00;0.00;;;15.50;88.70;;;;;;4143086;28;20487;-48
2021/05/26 01:23:09;;;;;;;0.00;0.00;;;15.50;88.70;;;;;;4159178;28;20050;-46
2021/05/26 01:25:33;;;;;;;0.00;0.00;;;15.50;88.70;;;;;;4159104;28;20588;-47
2021/05/26 01:27:54;;;;;;;0.20;0.20;;;15.50;88.70;;;;;;4175632;28;20757;-45
2021/05/26 01:30:19;;;;;;;0.00;0.00;;;15.50;88.80;;;;;;4174189;28;20049;-45
2021/05/26 01:32:43;;;;;;;0.10;0.10;;;15.50;88.80;;;;;;4173492;28;20128;-49
2021/05/26 01:35:06;;;;;;;0.00;0.00;;;15.50;89.70;;;;;;4175247;28;20130;-45
2021/05/26 01:37:28;;;;;;;0.00;0.00;;;15.50;88.90;;;;;;4175264;28;20415;-45
2021/05/26 01:39:50;;;;;;;0.00;0.00;;;15.50;89.80;;;;;;4172092;28;20049;-47
2021/05/26 01:42:27;;;;;;;0.00;0.00;;;15.50;88.90;;;;;;4161692;28;20428;-45
2021/05/26 01:44:49;;;;;;;0.00;0.00;;;15.40;88.90;;;;;;4158606;28;20073;-45
2021/05/26 01:47:23;;;;;;;0.00;0.00;;;15.40;88.90;;;;;;4145801;28;20053;-49
2021/05/26 01:49:45;;;;;;;0.70;0.32;;;15.40;89.00;;;;;;4156805;28;20073;-45
2021/05/26 01:52:07;;;;;;;0.00;0.00;;;15.40;89.10;;;;;;4157473;28;20063;-45
2021/05/26 01:54:29;;;;;;;0.08;0.08;;;15.40;89.10;;;;;;4157397;28;20447;-49
2021/05/26 01:56:52;;;;;;;0.00;0.00;;;15.40;89.10;;;;;;4157688;28;20079;-48
2021/05/26 01:59:15;;;;;;;0.00;0.00;;;15.40;89.10;;;;;;4158096;28;20053;-46
2021/05/26 02:01:41;;;;;;;0.00;0.00;;;15.40;89.00;;;;;;4157702;28;20474;-45
2021/05/26 02:04:03;;;;;;;0.00;0.00;;;15.40;89.50;;;;;;4157270;28;20057;-49
2021/05/26 02:06:26;;;;;;;0.00;0.00;;;15.40;89.10;;;;;;4158559;28;20061;-47
2021/05/26 02:08:50;;;;;;;0.00;0.00;;;15.40;89.20;;;;;;4158726;28;20128;-49
2021/05/26 02:13:58;;;;;;;0.00;0.00;;;15.30;89.20;;;;;;4156751;28;20104;-47
2021/05/26 02:16:21;;;;;;;0.00;0.00;;;15.30;89.20;;;;;;4170486;28;20052;-45
2021/05/26 02:18:42;;;;;;;0.00;0.00;;;15.30;89.20;;;;;;4158616;28;20103;-47
2021/05/26 02:21:05;;;;;;;0.00;0.00;;;15.30;90.00;;;;;;4158740;28;20084;-46
2021/05/26 02:23:26;;;;;;;0.10;0.10;;;15.30;89.30;;;;;;4174822;28;20056;-48
2021/05/26 02:25:48;;;;;;;0.93;0.85;;;15.30;89.30;;;;;;4173035;28;20502;-47
2021/05/26 02:28:09;;;;;;;;;;;15.30;89.30;;;;;;4175409;28;20044;-45
2021/05/26 02:30:31;;;;;;;0.10;0.10;;;15.30;89.40;;;;;;4174803;28;19929;-45
2021/05/26 02:32:53;;;;;;;0.00;0.00;;;15.30;89.40;;;;;;4174904;28;20075;-46
2021/05/26 02:35:15;;;;;;;0.00;0.00;;;15.30;89.50;;;;;;4169768;28;20194;-45
2021/05/26 02:37:39;;;;;;;0.00;0.00;;;15.30;90.10;;;;;;4174876;28;20470;-45
2021/05/26 02:40:02;;;;;;;0.00;0.00;;;15.30;89.50;;;;;;4173146;28;20060;-43
2021/05/26 02:42:27;;;;;;;0.80;0.80;;;15.30;89.50;;;;;;4156892;28;20152;-45
2021/05/26 02:44:49;;;;;;;0.00;0.00;;;15.30;89.50;;;;;;4157411;28;20065;-47
2021/05/26 02:47:11;;;;;;;0.00;0.00;;;15.20;89.50;;;;;;4174863;28;20044;-45
2021/05/26 02:49:33;;;;;;;0.00;0.00;;;15.30;89.50;;;;;;4166427;28;22195;-46
2021/05/26 02:51:56;;;;;;;0.00;0.00;;;15.20;89.40;;;;;;4156598;28;20046;-46
2021/05/26 02:54:17;;;;;;;0.30;0.30;;;15.20;89.50;;;;;;4156687;28;20120;-46
2021/05/26 02:56:40;;;;;;;0.00;0.00;;;15.20;89.50;;;;;;4156830;28;20381;-48
2021/05/26 02:59:14;;;;;;;0.47;0.30;;;15.20;89.50;;;;;;4157241;28;20045;-46
2021/05/26 03:01:54;;;;;;;0.05;0.05;;;15.20;89.50;;;;;;4156289;28;20053;-45
2021/05/26 03:04:36;;;;;;;0.00;0.00;;;15.20;89.50;;;;;;4156027;28;20543;-49
2021/05/26 03:06:58;;;;;;;0.00;0.00;;;15.20;89.60;;;;;;4174745;28;21136;-46
2021/05/26 03:09:20;;;;;;;0.00;0.00;;;15.20;89.60;;;;;;4174200;28;20044;-47
2021/05/26 03:11:43;;;;;;;0.10;0.10;;;15.20;89.60;;;;;;4153940;28;20056;-46
2021/05/26 03:14:24;;;;;;;;;;;15.20;89.70;;;;;;4158584;28;20422;-45
2021/05/26 03:16:50;;;;;;;0.00;0.00;;;15.20;89.80;;;;;;4156545;28;19951;-46
2021/05/26 03:19:11;;;;;;;0.00;0.00;;;15.20;89.70;;;;;;4157899;28;20099;-46
2021/05/26 03:21:34;;;;;;;0.03;0.03;;;15.20;89.70;;;;;;4168936;28;20098;-45
2021/05/26 03:24:18;;;;;;;0.47;0.47;;;15.20;89.80;;;;;;4172436;28;20132;-46
2021/05/26 03:26:40;;;;;;;;;;;15.20;89.70;;;;;;4158572;28;20129;-51
2021/05/26 03:29:02;;;;;;;0.20;0.20;;;15.20;89.80;;;;;;4157415;28;19936;-48
2021/05/26 03:31:23;;;;;;;0.00;0.00;;;15.20;89.90;;;;;;4157936;28;20053;-46
2021/05/26 03:33:46;;;;;;;0.00;0.00;;;15.20;89.90;;;;;;4157813;28;20045;-45
2021/05/26 03:36:08;;;;;;;0.00;0.00;;;15.20;90.30;;;;;;4142832;28;20049;-47
2021/05/26 03:38:32;;;;;;;0.00;0.00;;;15.10;89.80;;;;;;4155503;28;20057;-48
2021/05/26 03:40:54;;;;;;;0.00;0.00;;;15.20;89.90;;;;;;4164041;28;20051;-47
2021/05/26 03:43:22;;;;;;;0.32;0.32;;;15.20;90.00;;;;;;4172462;28;20063;-45
2021/05/26 03:45:45;;;;;;;0.10;0.10;;;15.20;90.00;;;;;;4172726;28;20060;-48
2021/05/26 03:48:08;;;;;;;0.00;0.00;;;15.20;90.00;;;;;;4173943;28;20077;-45
2021/05/26 03:50:30;;;;;;;0.00;0.00;;;15.10;89.90;;;;;;4172921;28;20044;-49
2021/05/26 03:52:52;;;;;;;0.00;0.00;;;15.10;89.80;;;;;;4174302;28;20060;-47
2021/05/26 03:55:19;;;;;;;0.00;0.00;;;15.10;89.70;;;;;;4172427;28;20049;-51
2021/05/26 03:57:41;;;;;;;0.43;0.43;;;15.20;89.80;;;;;;4174191;28;20048;-53
2021/05/26 04:00:08;;;;;;;0.00;0.00;;;15.20;89.80;;;;;;4168040;28;20053;-47
2021/05/26 04:02:39;;;;;;;0.32;0.32;;;15.20;89.80;;;;;;4157160;28;20492;-48
2021/05/26 04:05:03;;;;;;;0.08;0.05;;;15.20;89.80;;;;;;4142894;28;20050;-45
2021/05/26 04:07:26;;;;;;;0.10;0.10;;;15.20;89.80;;;;;;4142776;28;20100;-45
2021/05/26 04:09:48;;;;;;;0.00;0.00;;;15.20;89.80;;;;;;4157706;28;20050;-49
2021/05/26 04:12:11;;;;;;;0.00;0.00;;;15.20;89.80;;;;;;4159254;28;20059;-48
2021/05/26 04:14:42;;;;;;;0.00;0.00;;;15.20;89.80;;;;;;4173763;28;20052;-48
2021/05/26 04:17:10;;;;;;;0.03;0.03;;;15.10;89.70;;;;;;4175472;28;20045;-45
2021/05/26 04:19:46;;;;;;;0.00;0.00;;;15.10;89.80;;;;;;4168180;28;20051;-46
2021/05/26 04:22:08;;;;;;;0.00;0.00;;;15.10;89.70;;;;;;4145341;28;20054;-51
2021/05/26 04:24:37;;;;;;;0.00;0.00;;;15.10;89.80;;;;;;4149939;28;20403;-47
2021/05/26 04:26:59;;;;;;;0.00;0.00;;;15.10;89.70;;;;;;4158845;28;20393;-46
2021/05/26 04:29:22;;;;;;;0.10;0.10;;;15.10;90.20;;;;;;4159952;28;20052;-48
2021/05/26 04:31:44;;;;;;;0.70;0.70;;;15.10;89.80;;;;;;4160343;28;20049;-46
2021/05/26 04:34:06;;;;;;;0.00;0.00;;;15.10;89.70;;;;;;4160057;28;20136;-45
2021/05/26 04:36:27;;;;;;;0.30;0.25;;;15.20;89.80;;;;;;4143606;28;20044;-50
2021/05/26 04:38:49;;;;;;;0.00;0.00;;;15.10;89.70;;;;;;4145133;28;20528;-45
2021/05/26 04:41:11;;;;;;;0.00;0.00;;;15.10;89.80;;;;;;4144984;28;21576;-46
2021/05/26 04:43:33;;;;;;;;;;;15.10;89.70;;;;;;4144308;28;20053;-46
2021/05/26 04:45:55;;;;;;;0.00;0.00;;;15.10;89.70;;;;;;4143425;28;19929;-45
2021/05/26 04:48:17;;;;;;;0.00;0.00;;;15.20;89.70;;;;;;4159587;28;20041;-46
2021/05/26 04:50:39;;;;;;;0.00;0.00;;;15.20;89.70;;;;;;4172202;28;20522;-45
2021/05/26 04:53:01;;;;;;;0.00;0.00;;;15.10;89.70;;;;;;4175854;28;20179;-45
2021/05/26 04:55:23;;;;;;;0.00;0.00;;;15.10;89.70;;;;;;4163324;28;20099;-45
2021/05/26 04:57:46;;;;;;;0.00;0.00;;;15.10;89.70;;;;;;4159653;28;20072;-46
2021/05/26 05:00:09;;;;;;;0.00;0.00;;;15.10;89.70;;;;;;4159692;28;20049;-47
2021/05/26 05:02:32;;;;;;;0.00;0.00;;;15.20;89.70;;;;;;4159622;28;20048;-46
2021/05/26 05:04:54;;;;;;;1.35;0.85;;;15.20;89.50;;;;;;4167675;28;20110;-48
2021/05/26 05:07:16;;;;;;;0.00;0.00;;;15.20;89.40;;;;;;4176082;28;20049;-48
2021/05/26 05:09:38;;;;;;;0.10;0.10;;;15.30;89.30;;;;;;4175229;28;20045;-48
2021/05/26 05:11:59;;;;;;;0.00;0.00;;;15.40;89.10;;;;;;4176094;28;20053;-45
2021/05/26 05:14:20;;;;;;;;;;;15.50;88.90;;;;;;4176352;28;20492;-47
2021/05/26 05:16:42;;;;;;;0.00;0.00;;;15.50;88.20;;;;;;4166495;28;19932;-47
2021/05/26 05:19:04;;;;;;;0.45;0.45;;;15.50;88.20;;;;;;4171275;28;20083;-49
2021/05/26 05:21:26;;;;;;;0.80;0.32;;;15.50;88.40;;;;;;4172925;28;20071;-45
2021/05/26 05:23:48;;;;;;;0.00;0.00;;;15.40;88.50;;;;;;4171807;28;20049;-46
2021/05/26 05:26:10;;;;;;;0.05;0.05;;;15.40;88.80;;;;;;4159339;28;20047;-45
2021/05/26 05:28:31;;;;;;;0.25;0.25;;;15.30;88.70;;;;;;4159571;28;20123;-44
2021/05/26 05:30:53;;;;;;;1.20;0.80;;;15.30;89.00;;;;;;4157313;28;20056;-44
2021/05/26 05:33:14;;;;;;;0.00;0.00;;;15.30;89.50;;;;;;4159273;28;20499;-48
2021/05/26 05:35:37;;;;;;;0.00;0.00;;;15.30;90.40;;;;;;4159148;28;20179;-46
2021/05/26 05:37:59;;;;;;;0.03;0.03;;;15.40;90.20;;;;;;4159471;28;20053;-48
2021/05/26 05:40:21;;;;;;;0.30;0.30;;;15.40;89.90;;;;;;4172981;28;20487;-47
2021/05/26 05:42:42;;;;;;;0.63;0.63;;;15.30;89.70;;;;;;4175312;28;20048;-49
2021/05/26 05:45:05;;;;;;;0.00;0.00;;;15.30;89.50;;;;;;4171589;28;20091;-47
2021/05/26 05:47:28;;;;;;;0.10;0.10;;;15.30;89.50;;;;;;4164861;28;20077;-47
2021/05/26 05:49:49;;;;;;;0.50;0.50;;;15.30;89.50;;;;;;4159783;28;20107;-49
2021/05/26 05:52:12;;;;;;;0.20;0.20;;;15.30;89.50;;;;;;4159431;28;20041;-48
2021/05/26 05:54:34;;;;;;;0.52;0.52;;;15.30;89.50;;;;;;4162463;28;20141;-48
2021/05/26 05:56:55;;;;;;;;;;;15.30;89.60;;;;;;4170600;28;20080;-48
2021/05/26 05:59:16;;;;;;;0.00;0.00;;;15.20;89.50;;;;;;4175109;28;19924;-46
2021/05/26 06:01:38;;;;;;;0.00;0.00;;;15.30;89.50;;;;;;4160820;28;20049;-48
2021/05/26 06:04:01;;;;;;;0.10;0.10;;;15.20;89.40;;;;;;4158060;28;20524;-45
2021/05/26 06:06:22;;;;;;;0.00;0.00;;;15.20;89.20;;;;;;4174494;28;20506;-46
2021/05/26 06:08:44;;;;;;;;;;;15.20;89.10;;;;;;4172659;28;20115;-48
2021/05/26 06:11:07;;;;;;;0.00;0.00;;;15.20;89.00;;;;;;4159530;28;20344;-47
2021/05/26 06:13:33;;;;;;;0.00;0.00;;;15.20;88.90;;;;;;4173949;28;20057;-45
2021/05/26 06:15:54;;;;;;;0.00;0.00;;;15.20;88.80;;;;;;4158734;28;20049;-49
2021/05/26 06:18:18;;;;;;;0.22;0.22;;;15.20;88.70;;;;;;4170901;28;20067;-45
2021/05/26 06:20:40;;;;;;;0.10;0.10;;;15.20;88.70;;;;;;4165902;28;20398;-45
2021/05/26 06:23:01;;;;;;;2.55;2.35;;;15.20;88.70;;;;;;4174994;28;20129;-47
2021/05/26 06:25:25;;;;;;;0.30;0.30;;;15.20;88.60;;;;;;4162256;28;20064;-48
2021/05/26 06:27:46;;;;;;;0.82;0.82;;;15.10;88.50;;;;;;4169052;28;20132;-45
2021/05/26 06:30:08;;;;;;;;;;;15.10;88.50;;;;;;4174871;28;20083;-49
2021/05/26 06:32:29;;;;;;;;;;;15.10;88.40;;;;;;4167021;28;19967;-48
2021/05/26 06:34:51;;;;;;;0.30;0.30;;;15.20;88.40;;;;;;4159358;28;19932;-47
2021/05/26 06:37:12;;;;;;;0.00;0.00;;;15.10;89.10;;;;;;4158286;28;20733;-47
2021/05/26 06:39:34;;;;;;;0.03;0.03;;;15.10;88.30;;;;;;4169859;28;20045;-48
2021/05/26 06:41:56;;;;;;;0.10;0.10;;;15.10;88.20;;;;;;4174056;28;20053;-50
2021/05/26 06:44:18;;;;;;;0.65;0.65;;;15.10;88.20;;;;;;4172574;28;20048;-48
2021/05/26 06:46:40;;;;;;;0.80;0.75;;;15.20;92.10;;;;;;4174023;28;20048;-49
2021/05/26 06:49:03;;;;;;;0.00;0.00;;;15.20;92.90;;;;;;4174619;28;20071;-48
2021/05/26 06:51:25;;;;;;;0.63;0.63;;;15.20;92.80;;;;;;4174466;28;20491;-50
2021/05/26 06:53:47;;;;;;;0.60;0.60;;;15.20;92.10;;;;;;4171024;28;20052;-49
2021/05/26 06:56:08;;;;;;;1.95;0.93;;;15.20;91.60;;;;;;4159320;28;20049;-46
2021/05/26 06:58:31;;;;;;;0.88;0.88;;;15.20;92.00;;;;;;4166694;28;20041;-45
2021/05/26 07:00:53;;;;;;;2.92;1.98;;;15.20;91.60;;;;;;4141871;28;20053;-50
2021/05/26 07:03:15;;;;;;;2.92;2.38;;;15.20;91.40;;;;;;4165850;28;20414;-46
2021/05/26 07:05:37;;;;;;;1.23;1.20;;;15.20;91.20;;;;;;4168953;28;20051;-50
2021/05/26 07:07:58;;;;;;;0.05;0.05;;;15.20;91.00;;;;;;4164915;28;20048;-49
2021/05/26 07:10:21;;;;;;;0.00;0.00;;;15.20;90.90;;;;;;4162879;28;20053;-50
2021/05/26 07:12:46;;;;;;;0.77;0.77;;;15.20;90.70;;;;;;4165213;28;20036;-45
2021/05/26 07:15:13;;;;;;;0.22;0.22;;;15.20;90.60;;;;;;4149231;28;20053;-49
2021/05/26 07:17:38;;;;;;;1.38;1.25;;;15.30;90.60;;;;;;4127084;28;20045;-48
2021/05/26 07:20:03;;;;;;;0.10;0.10;;;15.30;90.50;;;;;;4149881;28;20060;-49
2021/05/26 07:22:29;;;;;;;0.47;0.47;;;15.30;90.40;;;;;;4151898;28;20045;-47
2021/05/26 07:24:52;;;;;;;0.17;0.17;;;15.30;90.30;;;;;;4160121;28;20103;-46
2021/05/26 07:27:16;;;;;;;0.90;0.90;;;15.30;90.20;;;;;;4157625;28;20424;-47
2021/05/26 07:29:39;;;;;;;1.92;0.80;;;15.30;90.10;;;;;;4158133;28;20410;-47
2021/05/26 07:32:02;;;;;;;0.65;0.65;;;15.30;90.10;;;;;;4166544;28;20772;-49
2021/05/26 07:34:30;;;;;;;0.55;0.55;;;15.30;90.00;;;;;;4151281;28;20050;-47
2021/05/26 07:37:07;;;;;;;0.00;0.00;;;15.30;89.90;;;;;;4150827;28;20190;-47
2021/05/26 07:39:34;;;;;;;0.00;0.00;;;15.30;89.90;;;;;;4112195;28;20074;-47
2021/05/26 07:42:02;;;;;;;0.00;0.00;;;15.30;89.80;;;;;;4136806;28;20045;-50
2021/05/26 07:44:23;;;;;;;3.20;2.90;;;15.30;89.60;;;;;;4148103;28;20041;-45
2021/05/26 07:46:48;;;;;;;0.17;0.17;;;15.30;89.60;;;;;;4150820;28;20060;-46
2021/05/26 07:49:13;;;;;;;4.38;1.23;;;15.30;89.50;;;;;;4153676;28;20049;-47
2021/05/26 07:51:41;;;;;;;1.75;1.55;;;15.40;89.50;;;;;;4148274;28;20073;-49
2021/05/26 07:54:06;;;;;;;0.00;0.00;;;15.40;89.50;;;;;;4158398;28;20673;-46
2021/05/26 07:56:30;;;;;;;0.22;0.22;;;15.40;89.50;;;;;;4165700;28;20270;-46
2021/05/26 07:58:53;;;;;;;0.70;0.70;;;15.40;89.40;;;;;;4153388;28;20049;-46
2021/05/26 08:01:17;;;;;;;0.17;0.17;;;15.40;89.30;;;;;;4163409;28;20049;-52
2021/05/26 08:03:41;;;;;;;0.30;0.30;;;15.40;89.20;;;;;;4160260;28;20064;-48
2021/05/26 08:06:07;;;;;;;0.85;0.65;;;15.40;89.10;;;;;;4156800;28;20059;-45
2021/05/26 08:08:30;;;;;;;0.00;0.00;;;15.40;89.10;;;;;;4156981;28;20061;-46
2021/05/26 08:10:56;;;;;;;0.15;0.15;;;15.40;89.00;;;;;;4152453;28;20072;-46
2021/05/26 08:13:19;;;;;;;0.00;0.00;;;15.40;88.90;;;;;;4150013;28;20056;-48
2021/05/26 08:15:42;;;;;;;0.30;0.30;;;15.40;89.00;;;;;;4156314;28;20135;-47
2021/05/26 08:18:06;;;;;;;0.30;0.30;;;15.40;88.80;;;;;;4158328;28;20045;-48
2021/05/26 08:20:28;;;;;;;1.40;1.30;;;15.50;88.70;;;;;;4164222;28;20060;-48
2021/05/26 08:22:51;;;;;;;0.00;0.00;;;15.50;88.40;;;;;;4146587;28;20512;-49
2021/05/26 08:25:13;;;;;;;0.43;0.43;;;15.50;88.10;;;;;;4159270;28;20045;-45
2021/05/26 08:27:36;;;;;;;0.00;0.00;;;15.60;87.80;;;;;;4160653;28;20049;-48
2021/05/26 08:30:01;;;;;;;7.18;1.55;;;15.60;87.60;;;;;;4160686;28;20501;-48
2021/05/26 08:32:25;;;;;;;2.00;1.85;;;15.70;87.40;;;;;;4151629;28;20063;-48
2021/05/26 08:34:49;;;;;;;2.15;1.98;;;15.70;87.20;;;;;;4140087;28;20049;-47
2021/05/26 08:37:15;;;;;;;0.25;0.25;;;15.70;87.00;;;;;;4156306;28;20077;-52
2021/05/26 08:39:39;;;;;;;0.60;0.60;;;15.70;87.00;;;;;;4162483;28;20079;-47
2021/05/26 08:42:13;;;;;;;0.00;0.00;;;15.70;86.80;;;;;;4157263;28;20053;-48
2021/05/26 08:44:37;;;;;;;0.10;0.10;;;15.70;86.70;;;;;;4162573;28;20060;-51
2021/05/26 08:47:03;;;;;;;0.52;0.52;;;15.70;86.70;;;;;;4151262;28;20056;-52
2021/05/26 08:49:30;;;;;;;0.10;0.10;;;15.70;86.60;;;;;;4147364;28;20053;-48
2021/05/26 08:52:01;;;;;;;0.00;0.00;;;15.70;86.50;;;;;;4161810;28;20060;-50
2021/05/26 08:54:24;;;;;;;0.00;0.00;;;15.80;86.50;;;;;;4160376;28;20142;-51
2021/05/26 08:56:51;;;;;;;0.63;0.63;;;15.80;86.50;;;;;;4153806;28;20057;-48
2021/05/26 08:59:17;;;;;;;0.00;0.00;;;15.80;86.60;;;;;;4150488;28;20395;-51
2021/05/26 09:01:45;;;;;;;0.22;0.17;;;15.70;86.50;;;;;;4161810;28;20055;-50
2021/05/26 09:04:33;;;;;;;0.57;0.57;;;15.70;86.60;;;;;;4158420;28;20056;-47
2021/05/26 09:07:12;;;;;;;0.10;0.10;;;15.80;86.50;;;;;;4141730;28;20041;-50
2021/05/26 09:09:52;;;;;;;0.00;0.00;;;15.70;86.30;;;;;;4156645;28;20056;-49
2021/05/26 09:12:28;;;;;;;0.00;0.00;;;15.80;86.50;;;;;;4155519;28;20522;-49
2021/05/26 09:15:01;;;;;;;0.00;0.00;;;15.80;86.60;;;;;;4151833;28;20055;-49
2021/05/26 09:17:30;;;;;;;0.00;0.00;;;15.80;86.40;;;;;;4156824;28;20562;-45
2021/05/26 09:20:12;;;;;;;0.10;0.10;;;15.90;86.20;;;;;;4162996;28;20061;-46
2021/05/26 09:22:42;;;;;;;0.00;0.00;;;15.90;85.80;;;;;;4152609;28;20057;-46
2021/05/26 09:25:10;;;;;;;0.00;0.00;;;16.00;85.20;;;;;;4143188;28;20058;-47
2021/05/26 09:27:33;;;;;;;0.45;0.45;;;16.10;84.80;;;;;;4147958;28;20048;-48
2021/05/26 09:29:59;;;;;;;0.00;0.00;;;16.10;84.60;;;;;;4145756;28;20041;-48
2021/05/26 09:32:36;;;;;;;0.65;0.65;;;16.10;84.30;;;;;;4148530;28;20562;-48
2021/05/26 09:35:01;;;;;;;0.00;0.00;;;16.10;84.20;;;;;;4144867;28;20450;-49
2021/05/26 09:37:26;;;;;;;0.32;0.28;;;16.10;84.20;;;;;;4162827;28;20052;-50
2021/05/26 09:39:57;;;;;;;0.00;0.00;;;16.20;84.80;;;;;;4152696;28;20052;-45
2021/05/26 09:42:27;;;;;;;0.20;0.20;;;16.10;83.60;;;;;;4148443;28;20049;-46
2021/05/26 09:45:13;;;;;;;0.10;0.10;;;16.10;83.60;;;;;;4152509;28;20132;-48
2021/05/26 09:47:37;;;;;;;0.00;0.00;;;16.10;83.70;;;;;;4165764;28;20049;-49
2021/05/26 09:50:14;;;;;;;0.00;0.00;;;16.10;83.90;;;;;;4166847;28;20049;-50
2021/05/26 09:52:51;;;;;;;0.45;0.43;;;16.10;84.00;;;;;;4159553;28;20056;-49
2021/05/26 09:55:20;;;;;;;0.00;0.00;;;16.10;84.20;;;;;;4161553;28;20053;-49
2021/05/26 09:57:48;;;;;;;0.00;0.00;;;16.10;84.20;;;;;;4164100;28;20069;-48
2021/05/26 10:00:12;;;;;;;0.38;0.38;;;16.00;84.40;;;;;;4158646;28;20463;-45
2021/05/26 10:02:34;;;;;;;0.47;0.47;;;16.00;85.00;;;;;;4158789;28;20053;-47
2021/05/26 10:04:56;;;;;;;1.45;1.35;;;16.10;85.90;;;;;;4158923;28;20053;-48
2021/05/26 10:07:37;;;;;;;1.27;1.25;;;16.10;85.40;;;;;;4170104;28;20147;-49
2021/05/26 10:09:59;;;;;;;0.40;0.40;;;16.10;84.80;;;;;;4165995;28;20049;-46
2021/05/26 10:12:32;;;;;;;0.45;0.10;;;16.20;84.30;;;;;;4174494;28;20514;-46
2021/05/26 10:15:00;;;;;;;0.00;0.00;;;16.20;83.90;;;;;;4175247;28;20053;-46
2021/05/26 10:17:25;;;;;;;0.75;0.55;;;16.30;83.80;;;;;;4174776;28;20055;-47
2021/05/26 10:19:49;;;;;;;0.10;0.10;;;16.30;83.70;;;;;;4175163;28;20044;-48
2021/05/26 10:22:10;;;;;;;3.90;1.38;;;16.30;83.50;;;;;;4174935;28;20057;-45
2021/05/26 10:24:32;;;;;;;0.00;0.00;;;16.40;83.40;;;;;;4175204;28;20152;-46
2021/05/26 10:27:01;;;;;;;0.68;0.68;;;16.40;83.30;;;;;;4174570;28;20048;-47
2021/05/26 10:29:39;;;;;;;0.08;0.08;;;16.40;83.30;;;;;;4172901;28;20172;-48
2021/05/26 10:32:03;;;;;;;0.63;0.63;;;16.40;83.20;;;;;;4173306;28;20148;-46
2021/05/26 10:35:05;;;;;;;1.00;0.43;;;16.40;83.00;;;;;;4172088;28;20048;-45
2021/05/26 10:37:29;;;;;;;0.15;0.15;;;16.40;82.80;;;;;;4173037;28;20049;-48
2021/05/26 10:39:51;;;;;;;0.00;0.00;;;16.40;83.10;;;;;;4175029;28;20052;-48
2021/05/26 10:42:25;;;;;;;0.00;0.00;;;16.40;83.00;;;;;;4174846;28;20049;-49
2021/05/26 10:44:55;;;;;;;0.00;0.00;;;16.40;82.90;;;;;;4171795;28;20049;-48
2021/05/26 10:47:51;;;;;;;0.00;0.00;;;16.30;83.10;;;;;;4171678;28;20115;-48
2021/05/26 10:50:24;;;;;;;0.20;0.20;;;16.30;83.10;;;;;;4106728;28;20134;-49
2021/05/26 10:53:08;;;;;;;;;;;16.30;83.10;;;;;;4107695;28;20054;-48
2021/05/26 10:55:37;;;;;;;3.10;0.65;;;16.30;83.10;;;;;;4152390;28;19983;-50
2021/05/26 10:58:17;;;;;;;0.55;0.55;;;16.20;83.00;;;;;;4159459;28;20476;-51
2021/05/26 11:00:40;;;;;;;0.00;0.00;;;16.30;83.20;;;;;;4158058;28;20523;-50
2021/05/26 11:03:31;;;;;;;0.22;0.22;;;16.30;83.20;;;;;;4158055;28;20049;-48
2021/05/26 11:05:55;;;;;;;0.00;0.00;;;16.30;83.20;;;;;;4158020;28;20562;-47
2021/05/26 11:08:45;;;;;;;0.20;0.20;;;16.30;83.10;;;;;;4173031;28;20451;-46
2021/05/26 11:11:41;;;;;;;0.00;0.00;;;16.30;83.10;;;;;;4174314;28;20056;-48
2021/05/26 11:14:29;;;;;;;0.00;0.00;;;16.30;82.90;;;;;;4173242;28;20481;-48
2021/05/26 11:17:31;;;;;;;0.00;0.00;;;16.40;82.90;;;;;;4170599;28;20048;-45
2021/05/26 11:20:09;;;;;;;0.00;0.00;;;16.40;82.70;;;;;;4175516;28;20044;-47
2021/05/26 11:22:31;;;;;;;0.00;0.00;;;16.40;82.60;;;;;;4177578;28;20078;-48
2021/05/26 11:24:54;;;;;;;0.00;0.00;;;16.40;82.40;;;;;;4177735;28;20128;-46
2021/05/26 11:27:26;;;;;;;0.70;0.65;;;16.40;82.20;;;;;;4177517;28;20041;-48
2021/05/26 11:29:49;;;;;;;0.00;0.00;;;16.50;82.00;;;;;;4177755;28;20533;-47
2021/05/26 11:32:12;;;;;;;10.80;3.55;;;16.50;81.80;;;;;;4177660;28;21522;-49
2021/05/26 11:34:34;;;;;;;0.20;0.20;;;16.50;81.70;;;;;;4178045;28;20106;-46
2021/05/26 11:36:56;;;;;;;0.10;0.10;;;16.50;81.60;;;;;;4177039;28;20044;-48
2021/05/26 11:39:25;;;;;;;0.25;0.25;;;16.50;81.50;;;;;;4177476;28;20055;-50
2021/05/26 11:41:47;;;;;;;0.00;0.00;;;16.50;81.50;;;;;;4176018;28;20053;-46
2021/05/26 11:44:09;;;;;;;0.00;0.00;;;16.50;81.40;;;;;;4177338;28;20055;-47
2021/05/26 11:46:30;;;;;;;1.15;1.15;;;16.50;81.30;;;;;;4160851;28;20049;-52
2021/05/26 11:48:51;;;;;;;;;;;16.50;81.30;;;;;;4175035;28;20049;-49
2021/05/26 11:51:27;;;;;;;0.00;0.00;;;16.50;81.20;;;;;;4177236;28;19974;-48
2021/05/26 11:53:54;;;;;;;0.00;0.00;;;16.60;81.20;;;;;;4177274;28;20045;-48
2021/05/26 11:56:17;;;;;;;0.00;0.00;;;16.50;81.10;;;;;;4170361;28;20510;-50
2021/05/26 11:58:40;;;;;;;0.00;0.00;;;16.60;81.20;;;;;;4160600;28;20049;-48
2021/05/26 12:01:04;;;;;;;0.00;0.00;;;16.60;81.20;;;;;;4161184;28;20095;-45
2021/05/26 12:03:30;;;;;;;1.35;0.65;;;16.60;81.10;;;;;;4160764;28;20520;-49
2021/05/26 12:05:52;;;;;;;0.03;0.03;;;16.60;82.10;;;;;;4160429;28;20056;-49
2021/05/26 12:08:16;;;;;;;0.00;0.00;;;16.60;81.10;;;;;;4160644;28;20352;-50
2021/05/26 12:10:38;;;;;;;0.00;0.00;;;16.60;80.90;;;;;;4160524;28;20050;-46
2021/05/26 12:13:01;;;;;;;0.00;0.00;;;16.60;80.80;;;;;;4160817;28;20059;-45
2021/05/26 12:15:23;;;;;;;0.38;0.38;;;16.60;80.50;;;;;;4161673;28;20054;-46
2021/05/26 12:17:45;;;;;;;0.00;0.00;;;16.70;80.60;;;;;;4176665;28;20574;-46
2021/05/26 12:20:07;;;;;;;;;;;16.70;80.40;;;;;;4177271;28;20055;-47
2021/05/26 12:22:44;;;;;;;0.00;0.00;;;16.70;80.10;;;;;;4177102;28;19963;-48
2021/05/26 12:25:06;;;;;;;0.10;0.10;;;16.70;80.00;;;;;;4176313;28;20514;-48
2021/05/26 12:27:32;;;;;;;0.00;0.00;;;16.80;79.90;;;;;;4176741;28;20130;-48
2021/05/26 12:29:55;;;;;;;0.80;0.30;;;16.70;79.80;;;;;;4176628;28;20049;-47
2021/05/26 12:32:25;;;;;;;0.00;0.00;;;16.70;79.80;;;;;;4176314;28;20051;-49
2021/05/26 12:34:57;;;;;;;0.00;0.00;;;16.70;79.80;;;;;;4174738;28;20045;-51
2021/05/26 12:37:38;;;;;;;0.00;0.00;;;16.70;79.80;;;;;;4159314;28;20096;-49
2021/05/26 12:39:59;;;;;;;0.20;0.20;;;16.60;80.10;;;;;;4144802;28;20050;-46
2021/05/26 12:42:34;;;;;;;0.52;0.47;;;16.60;80.30;;;;;;4159090;28;20072;-50
2021/05/26 12:45:21;;;;;;;0.00;0.00;;;16.60;80.70;;;;;;4163185;28;20069;-52